Time;durP1;ratioP1;P1;durP2;ratioP2;P2;SDS_P1;SDS_P2;PMS_P1;PMS_P2;Temp;Humidity;BMP_temperature;BMP_pressure;BME280_temperature;BME280_humidity;BME280_pressure;Samples;Min_cycle;Max_cycle;Signal;HPM_P1;HPM_P2
2022/09/27 00:02:14;;;;;;;0.28;0.28;;;10.00;99.90;;;;;;5072669;28;20593;-70
2022/09/27 00:04:39;;;;;;;1.30;0.43;;;10.00;99.90;;;;;;5073009;28;20044;-70
2022/09/27 00:07:06;;;;;;;0.90;0.50;;;10.20;99.90;;;;;;5072556;28;20123;-70
2022/09/27 00:09:32;;;;;;;2.72;0.43;;;9.90;99.90;;;;;;5072643;28;20452;-70
2022/09/27 00:11:58;;;;;;;0.55;0.30;;;9.90;99.90;;;;;;5072822;28;20075;-70
2022/09/27 00:14:24;;;;;;;1.52;0.40;;;9.90;99.90;;;;;;5054476;28;20076;-70
2022/09/27 00:16:49;;;;;;;1.10;0.40;;;10.00;99.90;;;;;;5072508;28;20049;-70
2022/09/27 00:19:20;;;;;;;1.05;0.50;;;9.80;99.90;;;;;;5072449;28;20040;-69
2022/09/27 00:21:46;;;;;;;1.00;0.40;;;9.80;99.90;;;;;;5054594;28;20045;-70
2022/09/27 00:24:14;;;;;;;1.40;0.50;;;9.90;99.90;;;;;;5054674;28;20540;-70
2022/09/27 00:26:39;;;;;;;1.95;0.40;;;9.80;99.90;;;;;;5072494;28;20051;-70
2022/09/27 00:29:06;;;;;;;0.90;0.30;;;9.80;99.90;;;;;;5054767;28;20036;-70
2022/09/27 00:31:32;;;;;;;0.52;0.30;;;9.70;99.90;;;;;;5054412;28;20079;-70
2022/09/27 00:34:00;;;;;;;0.88;0.30;;;9.70;99.90;;;;;;5054394;28;20056;-70
2022/09/27 00:36:27;;;;;;;1.38;0.40;;;9.70;99.90;;;;;;5072355;28;20079;-69
2022/09/27 00:38:54;;;;;;;0.93;0.30;;;9.70;99.90;;;;;;5072635;28;20083;-70
2022/09/27 00:41:23;;;;;;;0.20;0.20;;;9.70;99.90;;;;;;5072572;28;20070;-70
2022/09/27 00:44:03;;;;;;;0.38;0.32;;;9.70;99.90;;;;;;5072605;28;20049;-71
2022/09/27 00:46:35;;;;;;;0.47;0.30;;;9.70;99.90;;;;;;5072589;28;20391;-70
2022/09/27 00:49:09;;;;;;;0.20;0.20;;;9.90;99.90;;;;;;5054582;28;20054;-71
2022/09/27 00:51:37;;;;;;;1.25;0.40;;;9.70;99.90;;;;;;5072536;28;20052;-70
2022/09/27 00:54:05;;;;;;;0.28;0.28;;;10.00;99.90;;;;;;5072435;28;20045;-70
2022/09/27 00:56:32;;;;;;;1.20;0.30;;;9.80;99.90;;;;;;5072110;28;20040;-70
2022/09/27 00:59:19;;;;;;;0.30;0.20;;;9.80;99.90;;;;;;5055746;28;20079;-70
2022/09/27 01:01:45;;;;;;;0.80;0.28;;;9.70;99.90;;;;;;5075894;28;20033;-70
2022/09/27 01:04:13;;;;;;;0.20;0.20;;;9.80;99.90;;;;;;5076026;28;20047;-72
2022/09/27 01:06:39;;;;;;;0.22;0.20;;;10.10;99.90;;;;;;5076063;28;20141;-70
2022/09/27 01:09:10;;;;;;;2.85;0.40;;;10.10;99.90;;;;;;5076018;28;20049;-70
2022/09/27 01:11:56;;;;;;;1.25;0.47;;;9.80;99.90;;;;;;5075956;28;20036;-71
2022/09/27 01:14:40;;;;;;;0.10;0.10;;;9.80;99.90;;;;;;5075465;28;20045;-70
2022/09/27 01:17:30;;;;;;;1.85;0.43;;;10.10;99.90;;;;;;5075831;28;20071;-71
2022/09/27 01:20:14;;;;;;;3.50;0.30;;;9.80;99.90;;;;;;5057904;28;20519;-71
2022/09/27 01:22:58;;;;;;;0.85;0.40;;;9.70;99.90;;;;;;5057774;28;20056;-70
2022/09/27 01:25:53;;;;;;;0.30;0.30;;;9.70;99.90;;;;;;5075649;28;20046;-70
2022/09/27 01:28:23;;;;;;;0.43;0.30;;;9.70;99.90;;;;;;5057426;28;20071;-71
2022/09/27 01:31:09;;;;;;;0.20;0.20;;;9.80;99.90;;;;;;5075604;28;20044;-70
2022/09/27 01:33:40;;;;;;;0.57;0.30;;;;;;;;;;5075473;28;20044;-70
2022/09/27 01:36:06;;;;;;;0.40;0.40;;;;;;;;;;5075178;28;20044;-70
2022/09/27 01:38:42;;;;;;;1.00;0.30;;;;;;;;;;5057172;28;20044;-72
2022/09/27 01:41:18;;;;;;;1.27;0.40;;;;;;;;;;5075432;28;20043;-71
2022/09/27 01:43:55;;;;;;;1.27;0.40;;;;;;;;;;5057121;28;20128;-70
2022/09/27 01:46:25;;;;;;;1.83;0.35;;;;;;;;;;5075019;28;20040;-72
2022/09/27 01:48:51;;;;;;;0.20;0.20;;;;;;;;;;5075222;28;20032;-72
2022/09/27 01:51:17;;;;;;;0.28;0.28;;;;;;;;;;5075207;28;20097;-71
2022/09/27 01:53:48;;;;;;;1.10;0.57;;;;;;;;;;5075090;28;20483;-70
2022/09/27 01:56:33;;;;;;;2.38;0.30;;;;;;;;;;5075081;28;20036;-71
2022/09/27 01:59:04;;;;;;;0.57;0.28;;;;;;;;;;5074756;28;20051;-71
2022/09/27 02:01:32;;;;;;;0.50;0.40;;;;;;;;;;5056776;28;20047;-70
2022/09/27 02:04:00;;;;;;;4.03;0.38;;;;;;;;;;5056732;28;20044;-70
2022/09/27 02:06:33;;;;;;;0.68;0.30;;;;;;;;;;5056684;28;20044;-70
2022/09/27 02:09:05;;;;;;;0.30;0.30;;;;;;;;;;5056591;28;20049;-70
2022/09/27 02:11:31;;;;;;;0.40;0.30;;;;;;;;;;5073834;28;20491;-70
2022/09/27 02:14:11;;;;;;;0.30;0.22;;;;;;;;;;5056410;28;20063;-70
2022/09/27 02:16:50;;;;;;;0.30;0.30;;;;;;;;;;5074725;28;20045;-70
2022/09/27 02:19:28;;;;;;;0.20;0.20;;;;;;;;;;5074668;28;20399;-70
2022/09/27 02:22:06;;;;;;;1.15;0.30;;;;;;;;;;5074585;28;20118;-70
2022/09/27 02:24:53;;;;;;;0.52;0.20;;;;;;;;;;5074518;28;20045;-71
2022/09/27 02:27:22;;;;;;;0.73;0.40;;;;;;;;;;5074064;28;20045;-70
2022/09/27 02:29:52;;;;;;;2.83;0.32;;;;;;;;;;5074208;28;20072;-70
2022/09/27 02:32:18;;;;;;;0.15;0.15;;;;;;;;;;5074013;28;20094;-70
2022/09/27 02:34:45;;;;;;;0.45;0.38;;;;;;;;;;5074020;28;20045;-70
2022/09/27 02:37:11;;;;;;;0.20;0.20;;;;;;;;;;5074267;28;20124;-70
2022/09/27 02:39:37;;;;;;;3.00;1.00;;;;;;;;;;5074082;28;20040;-70
2022/09/27 02:42:04;;;;;;;0.93;0.30;;;;;;;;;;5056283;28;20036;-70
2022/09/27 02:44:30;;;;;;;0.20;0.20;;;;;;;;;;5073769;28;20090;-70
2022/09/27 02:47:08;;;;;;;3.72;0.32;;;;;;;;;;5073864;28;20082;-70
2022/09/27 02:49:43;;;;;;;0.25;0.25;;;;;;;;;;5073717;28;20079;-70
2022/09/27 02:52:20;;;;;;;0.30;0.20;;;;;;;;;;5073735;28;20072;-70
2022/09/27 02:54:58;;;;;;;0.35;0.20;;;;;;;;;;5073925;28;20120;-70
2022/09/27 02:57:24;;;;;;;0.45;0.20;;;;;;;;;;5055776;28;20446;-70
2022/09/27 02:59:57;;;;;;;1.02;0.30;;;;;;;;;;5055660;28;20048;-71
2022/09/27 03:02:32;;;;;;;0.85;0.30;;;;;;;;;;5073774;28;20043;-71
2022/09/27 03:05:05;;;;;;;0.10;0.10;;;;;;;;;;5073846;28;20044;-71
2022/09/27 03:07:31;;;;;;;0.20;0.20;;;;;;;;;;5055567;28;20036;-70
2022/09/27 03:09:57;;;;;;;1.20;0.52;;;;;;;;;;5073656;28;20093;-70
2022/09/27 03:12:26;;;;;;;1.05;0.30;;;;;;;;;;5073292;28;20056;-70
2022/09/27 03:14:54;;;;;;;0.35;0.30;;;;;;;;;;5073203;28;20060;-70
2022/09/27 03:17:21;;;;;;;1.55;0.20;;;;;;;;;;5073544;28;20526;-70
2022/09/27 03:19:47;;;;;;;0.43;0.40;;;;;;;;;;5073562;28;20047;-70
2022/09/27 03:22:13;;;;;;;0.25;0.20;;;;;;;;;;5072630;28;20491;-70
2022/09/27 03:24:39;;;;;;;0.40;0.38;;;;;;;;;;5073381;28;20041;-70
2022/09/27 03:27:05;;;;;;;2.28;0.45;;;;;;;;;;5073414;28;20384;-70
2022/09/27 03:29:32;;;;;;;0.22;0.20;;;;;;;;;;5073473;28;20072;-70
2022/09/27 03:31:58;;;;;;;0.20;0.20;;;;;;;;;;5073307;28;20040;-69
2022/09/27 03:34:24;;;;;;;0.30;0.20;;;;;;;;;;5073312;28;20032;-70
2022/09/27 03:36:50;;;;;;;0.10;0.10;;;;;;;;;;5073203;28;20044;-70
2022/09/27 03:39:16;;;;;;;0.30;0.30;;;;;;;;;;5073182;28;20028;-70
2022/09/27 03:41:42;;;;;;;0.20;0.20;;;;;;;;;;5073192;28;20120;-69
2022/09/27 03:44:08;;;;;;;0.45;0.30;;;;;;;;;;5054895;28;20076;-70
2022/09/27 03:46:34;;;;;;;0.98;0.20;;;;;;;;;;5054978;28;20051;-72
2022/09/27 03:49:00;;;;;;;0.73;0.40;;;;;;;;;;5072750;28;20040;-70
2022/09/27 03:51:26;;;;;;;0.20;0.20;;;;;;;;;;5072754;28;20040;-70
2022/09/27 03:53:52;;;;;;;0.20;0.20;;;;;;;;;;5073050;28;20036;-70
2022/09/27 03:56:18;;;;;;;0.35;0.30;;;9.00;99.90;;;;;;5054791;28;20056;-70
2022/09/27 03:58:44;;;;;;;0.15;0.15;;;9.10;99.90;;;;;;5055129;28;20188;-69
2022/09/27 04:01:09;;;;;;;0.30;0.30;;;9.00;99.90;;;;;;5073008;28;20131;-69
2022/09/27 04:03:35;;;;;;;0.15;0.15;;;8.90;99.90;;;;;;5072756;28;20040;-70
2022/09/27 04:06:02;;;;;;;0.40;0.40;;;8.90;99.90;;;;;;5072880;28;20074;-70
2022/09/27 04:08:28;;;;;;;0.65;0.30;;;8.90;99.90;;;;;;5072930;28;20045;-70
2022/09/27 04:10:55;;;;;;;0.17;0.15;;;8.90;99.90;;;;;;5072666;28;20036;-70
2022/09/27 04:13:20;;;;;;;1.55;0.20;;;8.90;99.90;;;;;;5054400;28;20059;-70
2022/09/27 04:15:46;;;;;;;1.65;0.30;;;8.90;99.90;;;;;;5054852;28;20115;-70
2022/09/27 04:18:14;;;;;;;0.10;0.10;;;9.50;99.90;;;;;;5072873;28;20036;-71
2022/09/27 04:20:40;;;;;;;2.92;0.25;;;8.90;99.90;;;;;;5054858;28;20044;-71
2022/09/27 04:23:07;;;;;;;0.25;0.25;;;8.90;99.90;;;;;;5072825;28;20120;-70
2022/09/27 04:25:33;;;;;;;1.85;0.30;;;9.00;99.90;;;;;;5072823;28;20032;-70
2022/09/27 04:28:01;;;;;;;0.45;0.43;;;9.00;99.90;;;;;;5072414;28;20394;-69
2022/09/27 04:30:30;;;;;;;0.10;0.10;;;9.00;99.90;;;;;;5054739;28;20080;-70
2022/09/27 04:32:57;;;;;;;1.52;0.30;;;9.00;99.90;;;;;;5037968;28;20037;-70
2022/09/27 04:38:07;;;;;;;0.95;0.50;;;9.00;99.90;;;;;;5075559;28;20051;-71
2022/09/27 04:40:34;;;;;;;0.20;0.20;;;9.10;99.90;;;;;;5076221;28;20032;-70
2022/09/27 04:43:00;;;;;;;0.90;0.55;;;9.10;99.90;;;;;;5057403;28;20098;-70
2022/09/27 04:45:26;;;;;;;1.10;0.40;;;9.10;99.90;;;;;;5076124;28;20047;-70
2022/09/27 04:47:57;;;;;;;0.82;0.43;;;9.10;99.90;;;;;;5074912;28;20062;-70
2022/09/27 04:50:23;;;;;;;0.10;0.10;;;9.20;99.90;;;;;;5058207;28;20047;-70
2022/09/27 04:52:55;;;;;;;0.70;0.45;;;9.10;99.90;;;;;;5076187;28;20453;-70
2022/09/27 04:55:21;;;;;;;0.63;0.15;;;9.20;99.90;;;;;;5058432;28;20037;-70
2022/09/27 04:57:50;;;;;;;0.88;0.20;;;9.40;99.90;;;;;;5058124;28;20074;-70
2022/09/27 05:00:19;;;;;;;1.13;0.30;;;9.10;99.90;;;;;;5075829;28;20151;-70
2022/09/27 05:02:48;;;;;;;0.28;0.20;;;9.10;99.90;;;;;;5075825;28;20076;-70
2022/09/27 05:05:17;;;;;;;0.20;0.20;;;9.10;99.90;;;;;;5076066;28;20488;-70
2022/09/27 05:07:42;;;;;;;4.43;0.20;;;9.10;99.90;;;;;;5033486;28;20053;-70
2022/09/27 05:10:09;;;;;;;0.38;0.13;;;9.10;99.90;;;;;;5033518;28;20416;-70
2022/09/27 05:12:34;;;;;;;3.75;0.38;;;9.10;99.90;;;;;;5017218;28;20045;-69
2022/09/27 05:15:01;;;;;;;1.65;0.40;;;9.10;99.90;;;;;;5033591;28;20056;-70
2022/09/27 05:17:27;;;;;;;0.30;0.30;;;9.10;99.90;;;;;;5033469;28;20040;-71
2022/09/27 05:19:53;;;;;;;0.30;0.30;;;9.10;99.90;;;;;;5033471;28;20053;-70
2022/09/27 05:22:19;;;;;;;0.75;0.20;;;9.10;99.90;;;;;;5033537;28;20485;-71
2022/09/27 05:24:44;;;;;;;0.10;0.10;;;9.00;99.90;;;;;;5017105;28;20485;-70
2022/09/27 05:27:17;;;;;;;0.68;0.47;;;9.00;99.90;;;;;;5033409;28;20048;-70
2022/09/27 05:29:44;;;;;;;1.55;0.25;;;9.00;99.90;;;;;;5033336;28;20141;-70
2022/09/27 05:32:10;;;;;;;0.20;0.20;;;9.00;99.90;;;;;;5016891;28;20452;-71
2022/09/27 05:34:35;;;;;;;0.63;0.20;;;9.00;99.90;;;;;;5033195;28;20046;-70
2022/09/27 05:37:01;;;;;;;0.38;0.20;;;9.00;99.90;;;;;;5016871;28;20124;-70
2022/09/27 05:39:28;;;;;;;0.88;0.35;;;9.00;99.90;;;;;;5000225;28;20048;-70
2022/09/27 05:41:55;;;;;;;1.55;0.30;;;8.90;99.90;;;;;;5033099;28;20041;-70
2022/09/27 05:44:21;;;;;;;0.30;0.30;;;9.70;99.90;;;;;;5040186;28;20109;-71
2022/09/27 05:46:46;;;;;;;4.57;0.30;;;9.00;99.90;;;;;;5074474;28;20064;-70
2022/09/27 05:49:12;;;;;;;0.35;0.30;;;8.90;99.90;;;;;;5075265;28;20079;-70
2022/09/27 05:51:38;;;;;;;0.30;0.30;;;9.40;99.90;;;;;;5057332;28;20476;-71
2022/09/27 05:54:03;;;;;;;0.47;0.30;;;9.00;99.90;;;;;;5074863;28;20032;-70
2022/09/27 05:56:29;;;;;;;0.90;0.50;;;8.90;99.90;;;;;;5075132;28;20059;-72
2022/09/27 05:58:54;;;;;;;0.80;0.22;;;9.40;99.90;;;;;;5057301;28;20059;-72
2022/09/27 06:01:20;;;;;;;0.57;0.40;;;8.90;99.90;;;;;;5074642;28;20407;-71
2022/09/27 06:03:46;;;;;;;0.73;0.40;;;8.90;99.90;;;;;;5074613;28;20039;-71
2022/09/27 06:06:13;;;;;;;1.58;0.35;;;8.90;99.90;;;;;;5056540;28;20044;-71
2022/09/27 06:08:39;;;;;;;0.30;0.30;;;8.90;99.90;;;;;;5056702;28;20048;-70
2022/09/27 06:11:11;;;;;;;0.30;0.25;;;8.90;99.90;;;;;;5074563;28;20041;-72
2022/09/27 06:13:38;;;;;;;0.60;0.30;;;9.10;99.90;;;;;;5074465;28;20114;-70
2022/09/27 06:16:05;;;;;;;0.38;0.28;;;8.90;99.90;;;;;;5056932;28;20051;-72
2022/09/27 06:18:31;;;;;;;0.20;0.20;;;9.00;99.90;;;;;;5056718;28;20032;-71
2022/09/27 06:21:02;;;;;;;0.40;0.38;;;9.00;99.90;;;;;;5074419;28;20044;-69
2022/09/27 06:23:31;;;;;;;0.52;0.40;;;9.40;99.90;;;;;;5074626;28;20094;-68
2022/09/27 06:26:04;;;;;;;0.80;0.40;;;9.10;99.90;;;;;;5074572;28;20099;-69
2022/09/27 06:28:30;;;;;;;2.17;0.50;;;9.10;99.90;;;;;;5074616;28;20059;-69
2022/09/27 06:30:56;;;;;;;2.80;0.70;;;9.30;99.90;;;;;;5056237;28;20050;-69
2022/09/27 06:33:21;;;;;;;2.65;0.90;;;9.10;99.90;;;;;;5056482;28;20479;-69
2022/09/27 06:35:48;;;;;;;1.27;0.50;;;9.20;99.90;;;;;;5074465;28;20032;-70
2022/09/27 06:38:16;;;;;;;0.77;0.57;;;9.20;99.90;;;;;;5056198;28;20064;-69
2022/09/27 06:40:45;;;;;;;0.40;0.40;;;9.10;99.90;;;;;;5074000;28;20162;-70
2022/09/27 06:43:16;;;;;;;1.65;0.50;;;9.20;99.90;;;;;;5074267;28;20040;-70
2022/09/27 06:45:42;;;;;;;;;;;9.30;99.90;;;;;;5039723;28;20041;-69
2022/09/27 06:48:11;;;;;;;0.75;0.50;;;9.30;99.90;;;;;;5055798;28;19917;-70
2022/09/27 06:50:39;;;;;;;4.35;0.63;;;9.30;99.90;;;;;;5073742;28;20044;-70
2022/09/27 06:53:06;;;;;;;1.45;0.30;;;9.40;99.90;;;;;;5073543;28;20041;-70
2022/09/27 06:55:32;;;;;;;0.30;0.20;;;9.40;99.90;;;;;;5073895;28;20032;-69
2022/09/27 07:00:46;;;;;;;3.47;0.60;;;9.40;99.90;;;;;;5073743;28;20039;-68
2022/09/27 07:03:13;;;;;;;0.20;0.20;;;9.40;99.90;;;;;;5073425;28;20045;-68
2022/09/27 07:05:43;;;;;;;0.55;0.47;;;9.70;99.90;;;;;;5038988;28;20055;-68
2022/09/27 07:08:10;;;;;;;1.27;0.45;;;9.50;99.90;;;;;;5073307;28;20040;-68
2022/09/27 07:10:39;;;;;;;2.38;0.43;;;9.50;99.90;;;;;;5073632;28;20040;-68
2022/09/27 07:13:07;;;;;;;0.75;0.15;;;9.50;99.90;;;;;;5073022;28;20135;-67
2022/09/27 07:15:36;;;;;;;0.22;0.20;;;9.60;99.90;;;;;;5055418;28;20059;-68
2022/09/27 07:18:03;;;;;;;2.75;0.43;;;9.60;99.90;;;;;;5055433;28;20104;-69
2022/09/27 07:20:30;;;;;;;0.98;0.52;;;9.70;99.90;;;;;;5073108;28;20040;-69
2022/09/27 07:22:56;;;;;;;1.48;0.40;;;9.70;99.90;;;;;;5055492;28;20467;-68
2022/09/27 07:25:22;;;;;;;0.88;0.40;;;9.80;99.90;;;;;;5073343;28;20036;-68
2022/09/27 07:27:48;;;;;;;0.45;0.32;;;9.90;99.90;;;;;;5055166;28;20040;-68
2022/09/27 07:30:15;;;;;;;3.60;0.35;;;10.00;99.90;;;;;;5055097;28;20085;-68
2022/09/27 07:32:42;;;;;;;1.25;0.30;;;10.00;99.90;;;;;;5073041;28;20093;-68
2022/09/27 07:35:09;;;;;;;0.20;0.20;;;10.10;99.90;;;;;;5073301;28;20388;-68
2022/09/27 07:37:36;;;;;;;0.47;0.22;;;;;;;;;;5055004;28;20067;-71
2022/09/27 07:40:06;;;;;;;1.15;0.68;;;10.20;99.90;;;;;;5073542;28;20385;-70
2022/09/27 07:42:32;;;;;;;2.20;0.30;;;10.30;99.90;;;;;;5072924;28;20045;-69
2022/09/27 07:44:58;;;;;;;4.68;0.40;;;10.30;99.90;;;;;;5073256;28;20407;-69
2022/09/27 07:47:25;;;;;;;0.25;0.25;;;10.20;99.90;;;;;;5072950;28;20028;-69
2022/09/27 07:49:54;;;;;;;2.90;0.40;;;10.20;99.90;;;;;;5072924;28;20512;-69
2022/09/27 07:52:21;;;;;;;0.43;0.28;;;10.10;99.90;;;;;;5073003;28;20507;-69
2022/09/27 07:54:46;;;;;;;0.20;0.20;;;10.10;99.90;;;;;;5073129;28;20086;-69
2022/09/27 07:57:14;;;;;;;0.82;0.32;;;10.10;99.90;;;;;;5055194;28;20492;-69
2022/09/27 07:59:40;;;;;;;1.10;0.30;;;10.10;99.90;;;;;;5072820;28;20473;-69
2022/09/27 08:02:12;;;;;;;0.90;0.40;;;10.30;99.90;;;;;;5073054;28;20035;-69
2022/09/27 08:04:37;;;;;;;0.20;0.20;;;10.20;99.90;;;;;;5072999;28;20043;-69
2022/09/27 08:07:03;;;;;;;0.30;0.30;;;10.50;99.90;;;;;;5073005;28;20036;-69
2022/09/27 08:09:29;;;;;;;0.70;0.40;;;10.50;99.90;;;;;;5072455;28;20509;-69
2022/09/27 08:11:58;;;;;;;0.65;0.30;;;10.40;99.90;;;;;;5072990;28;20314;-69
2022/09/27 08:14:23;;;;;;;2.92;0.40;;;10.50;99.90;;;;;;5072352;28;20113;-69
2022/09/27 08:16:50;;;;;;;1.40;0.30;;;10.70;99.90;;;;;;5072940;28;20044;-69
2022/09/27 08:19:17;;;;;;;0.30;0.25;;;10.70;99.90;;;;;;5054692;28;20041;-69
2022/09/27 08:21:42;;;;;;;0.30;0.25;;;10.70;99.90;;;;;;5038138;28;20044;-69
2022/09/27 08:24:08;;;;;;;0.50;0.38;;;10.80;99.90;;;;;;5072495;28;20511;-70
2022/09/27 08:26:34;;;;;;;2.13;0.28;;;10.80;99.90;;;;;;5072452;28;20056;-69
2022/09/27 08:28:59;;;;;;;0.20;0.20;;;11.00;99.90;;;;;;5054814;28;20127;-69
2022/09/27 08:31:25;;;;;;;0.20;0.20;;;11.00;99.90;;;;;;5072721;28;20466;-69
2022/09/27 08:33:51;;;;;;;1.45;0.30;;;11.10;99.90;;;;;;5054397;28;20133;-70
2022/09/27 08:36:19;;;;;;;0.20;0.20;;;11.20;99.90;;;;;;5054475;28;20115;-69
2022/09/27 08:38:51;;;;;;;0.70;0.30;;;11.30;99.90;;;;;;5072410;28;20041;-69
2022/09/27 08:41:40;;;;;;;1.05;0.30;;;11.40;99.90;;;;;;5054749;28;20079;-69
2022/09/27 08:44:17;;;;;;;0.20;0.20;;;11.50;99.90;;;;;;5072632;28;20117;-69
2022/09/27 08:47:09;;;;;;;0.85;0.30;;;11.50;99.90;;;;;;5054633;28;20127;-69
2022/09/27 08:49:57;;;;;;;0.45;0.30;;;11.50;99.90;;;;;;5072321;28;20107;-69
2022/09/27 08:52:29;;;;;;;0.20;0.20;;;11.60;99.90;;;;;;5072493;28;20070;-69
2022/09/27 08:55:00;;;;;;;0.30;0.30;;;11.70;99.90;;;;;;5054523;28;20048;-71
2022/09/27 08:57:25;;;;;;;0.20;0.20;;;11.70;99.90;;;;;;5054406;28;20094;-69
2022/09/27 09:00:06;;;;;;;0.10;0.10;;;11.70;99.90;;;;;;5072531;28;20479;-69
2022/09/27 09:02:36;;;;;;;0.20;0.20;;;11.70;99.90;;;;;;5072047;28;20055;-69
2022/09/27 09:05:12;;;;;;;0.45;0.30;;;11.80;99.90;;;;;;5072357;28;20505;-69
2022/09/27 09:08:02;;;;;;;0.30;0.30;;;11.70;99.90;;;;;;5054288;28;20399;-69
2022/09/27 09:13:47;;;;;;;0.20;0.20;;;11.70;99.90;;;;;;5071943;28;20310;-66
2022/09/27 09:16:49;;;;;;;1.65;0.30;;;11.70;99.90;;;;;;5072465;28;20434;-67
2022/09/27 09:19:36;;;;;;;0.65;0.30;;;11.80;99.90;;;;;;5050125;28;20052;-67
2022/09/27 09:22:30;;;;;;;0.10;0.10;;;12.00;99.90;;;;;;5057289;28;20484;-67
2022/09/27 09:25:11;;;;;;;0.65;0.50;;;12.20;99.90;;;;;;5075437;28;20453;-67
2022/09/27 09:27:58;;;;;;;0.47;0.25;;;12.40;99.90;;;;;;5075396;28;20104;-67
2022/09/27 09:30:33;;;;;;;1.20;0.40;;;12.50;99.90;;;;;;5040676;28;20044;-67
2022/09/27 09:33:19;;;;;;;0.10;0.10;;;12.60;99.90;;;;;;5075277;28;20514;-67
2022/09/27 09:36:07;;;;;;;0.38;0.30;;;12.60;99.90;;;;;;5075580;28;20040;-68
2022/09/27 09:38:57;;;;;;;0.30;0.30;;;12.50;99.90;;;;;;5075096;28;20043;-67
2022/09/27 09:41:45;;;;;;;0.20;0.20;;;12.40;99.90;;;;;;5075386;28;20106;-67
2022/09/27 09:44:28;;;;;;;2.63;0.25;;;12.50;99.90;;;;;;5075316;28;20040;-67
2022/09/27 09:46:57;;;;;;;1.48;0.20;;;12.40;99.90;;;;;;5075288;28;20037;-68
2022/09/27 09:49:30;;;;;;;1.77;0.30;;;12.40;99.90;;;;;;5075294;28;20551;-67
2022/09/27 09:52:10;;;;;;;1.85;0.47;;;12.60;99.90;;;;;;5057281;28;20095;-68
2022/09/27 09:54:47;;;;;;;2.60;0.20;;;12.70;99.90;;;;;;5075198;28;20041;-68
2022/09/27 09:57:27;;;;;;;0.20;0.20;;;12.80;99.90;;;;;;5056948;28;20136;-68
2022/09/27 10:00:03;;;;;;;1.13;0.43;;;12.80;99.90;;;;;;5074731;28;20041;-70
2022/09/27 10:02:38;;;;;;;1.50;0.30;;;12.80;99.90;;;;;;5075106;28;20048;-69
2022/09/27 10:05:06;;;;;;;0.50;0.40;;;12.90;99.90;;;;;;5040097;28;20045;-70
2022/09/27 10:07:33;;;;;;;0.73;0.40;;;13.00;99.90;;;;;;5056735;28;20053;-70
2022/09/27 10:10:01;;;;;;;1.38;0.45;;;13.20;99.90;;;;;;5074915;28;20052;-69
2022/09/27 10:12:27;;;;;;;0.88;0.38;;;13.40;99.90;;;;;;5056758;28;20036;-71
2022/09/27 10:14:55;;;;;;;1.35;0.35;;;;;;;;;;5074381;28;20117;-70
2022/09/27 10:17:22;;;;;;;0.95;0.38;;;;;;;;;;5074768;28;20048;-70
2022/09/27 10:19:51;;;;;;;0.68;0.35;;;;;;;;;;5074727;28;20475;-70
2022/09/27 10:22:20;;;;;;;3.17;0.63;;;;;;;;;;5056613;28;20064;-69
2022/09/27 10:25:01;;;;;;;0.70;0.50;;;;;;;;;;5074717;28;20032;-69
2022/09/27 10:27:36;;;;;;;0.30;0.20;;;12.90;99.90;;;;;;5056494;28;20047;-69
2022/09/27 10:30:02;;;;;;;0.30;0.30;;;12.50;98.30;;;;;;5074607;28;20086;-69
2022/09/27 10:32:35;;;;;;;0.10;0.10;;;12.00;99.90;;;;;;5073857;28;20045;-70
2022/09/27 10:35:41;;;;;;;0.10;0.10;;;11.80;99.90;;;;;;5074236;28;20117;-70
2022/09/27 10:38:19;;;;;;;3.15;0.20;;;11.50;99.90;;;;;;4957192;28;20039;-70
2022/09/27 10:40:45;;;;;;;0.45;0.10;;;11.30;99.90;;;;;;4957186;28;20069;-68
2022/09/27 10:43:22;;;;;;;0.20;0.20;;;11.10;99.90;;;;;;5030643;28;20123;-68
2022/09/27 10:45:48;;;;;;;0.10;0.10;;;11.10;99.90;;;;;;5074314;28;20044;-67
2022/09/27 10:48:23;;;;;;;0.20;0.20;;;11.00;99.90;;;;;;5073873;28;20094;-68
2022/09/27 10:51:00;;;;;;;0.20;0.20;;;10.90;99.90;;;;;;5074198;28;20075;-68
2022/09/27 10:53:28;;;;;;;0.40;0.40;;;10.80;99.90;;;;;;5073773;28;20052;-69
2022/09/27 10:55:54;;;;;;;0.22;0.22;;;10.80;99.90;;;;;;5074026;28;20036;-68
2022/09/27 10:58:28;;;;;;;1.42;0.30;;;10.70;99.90;;;;;;5073993;28;20032;-68
2022/09/27 11:00:55;;;;;;;3.03;0.30;;;10.80;99.90;;;;;;5055770;28;20080;-68
2022/09/27 11:03:24;;;;;;;0.25;0.25;;;10.80;99.90;;;;;;5073858;28;20044;-68
2022/09/27 11:05:53;;;;;;;0.10;0.10;;;10.90;99.90;;;;;;5073844;28;20040;-68
2022/09/27 11:08:25;;;;;;;0.30;0.30;;;11.00;99.90;;;;;;5073931;28;20496;-67
2022/09/27 11:11:15;;;;;;;0.20;0.20;;;11.10;99.90;;;;;;5073768;28;20037;-68
2022/09/27 11:13:56;;;;;;;0.22;0.22;;;11.10;99.90;;;;;;5073211;28;20402;-68
2022/09/27 11:16:42;;;;;;;0.28;0.22;;;11.20;99.90;;;;;;5055307;28;20128;-68
2022/09/27 11:19:36;;;;;;;0.10;0.10;;;11.10;99.90;;;;;;5073478;28;20120;-68
2022/09/27 11:22:29;;;;;;;0.22;0.10;;;11.20;99.90;;;;;;5073390;28;20036;-68
2022/09/27 11:25:07;;;;;;;0.20;0.20;;;11.30;99.90;;;;;;5039971;28;20472;-67
2022/09/27 11:27:57;;;;;;;0.10;0.10;;;11.50;99.90;;;;;;5073325;28;20043;-67
2022/09/27 11:30:23;;;;;;;0.30;0.20;;;11.60;99.90;;;;;;5073365;28;20044;-68
2022/09/27 11:33:25;;;;;;;1.85;0.30;;;11.60;99.90;;;;;;5072927;28;20044;-69
2022/09/27 11:36:12;;;;;;;0.38;0.22;;;11.60;99.90;;;;;;5055072;28;20040;-69
2022/09/27 11:39:04;;;;;;;0.20;0.20;;;11.40;99.90;;;;;;5055005;28;20047;-68
2022/09/27 11:41:54;;;;;;;0.10;0.10;;;11.30;99.90;;;;;;5072867;28;20047;-68
2022/09/27 11:45:04;;;;;;;0.10;0.10;;;11.10;99.90;;;;;;5053978;28;20079;-68
2022/09/27 11:47:59;;;;;;;0.40;0.17;;;10.90;99.90;;;;;;4956055;28;20501;-68
2022/09/27 11:50:55;;;;;;;0.20;0.20;;;10.90;99.90;;;;;;5072240;28;20052;-69
2022/09/27 11:53:30;;;;;;;0.60;0.20;;;10.80;99.90;;;;;;5054830;28;20044;-68
2022/09/27 11:56:02;;;;;;;0.10;0.10;;;10.80;99.90;;;;;;5072666;28;20059;-68
2022/09/27 11:58:44;;;;;;;0.13;0.13;;;11.00;99.90;;;;;;5054774;28;20044;-69
2022/09/27 12:01:09;;;;;;;0.55;0.25;;;11.30;99.90;;;;;;5072864;28;20051;-67
2022/09/27 12:03:53;;;;;;;0.10;0.10;;;11.60;99.90;;;;;;5072579;28;20399;-69
2022/09/27 12:07:03;;;;;;;0.20;0.20;;;11.80;99.90;;;;;;5072694;28;20480;-68
2022/09/27 12:09:38;;;;;;;0.20;0.20;;;12.10;99.90;;;;;;5054876;28;20041;-68
2022/09/27 12:12:34;;;;;;;0.30;0.30;;;12.20;99.90;;;;;;5072686;28;20526;-69
2022/09/27 12:15:11;;;;;;;0.32;0.20;;;12.40;99.90;;;;;;5052324;28;20063;-68
2022/09/27 12:17:41;;;;;;;0.22;0.20;;;12.50;99.90;;;;;;5054745;28;20040;-70
2022/09/27 12:20:34;;;;;;;0.20;0.20;;;12.70;99.90;;;;;;5054826;28;20056;-69
2022/09/27 12:23:09;;;;;;;0.55;0.20;;;12.70;99.90;;;;;;5068257;28;20499;-69
2022/09/27 12:25:38;;;;;;;0.20;0.20;;;12.70;99.90;;;;;;5054508;28;20098;-69
2022/09/27 12:28:29;;;;;;;0.52;0.10;;;13.10;99.90;;;;;;5054615;28;20087;-69
2022/09/27 12:31:07;;;;;;;0.10;0.10;;;13.10;99.90;;;;;;5072293;28;20131;-69
2022/09/27 12:34:08;;;;;;;0.40;0.20;;;13.10;99.90;;;;;;5037724;28;20075;-70
2022/09/27 12:36:42;;;;;;;0.10;0.10;;;13.10;99.90;;;;;;5034135;28;20480;-69
2022/09/27 12:39:20;;;;;;;0.77;0.30;;;13.20;99.90;;;;;;5054669;28;20131;-70
2022/09/27 12:41:59;;;;;;;0.40;0.20;;;13.10;99.90;;;;;;5054812;28;20127;-70
2022/09/27 12:44:27;;;;;;;0.30;0.30;;;13.00;99.90;;;;;;5054776;28;20051;-70
2022/09/27 12:47:10;;;;;;;0.20;0.20;;;12.90;99.90;;;;;;5072342;28;20080;-69
2022/09/27 12:49:41;;;;;;;0.20;0.20;;;12.90;99.90;;;;;;5072276;28;20072;-70
2022/09/27 12:52:20;;;;;;;1.20;0.30;;;12.90;99.90;;;;;;5072544;28;20044;-70
2022/09/27 12:54:49;;;;;;;0.20;0.20;;;12.60;99.90;;;;;;5040140;28;20040;-68
2022/09/27 12:57:43;;;;;;;0.93;0.25;;;12.50;99.90;;;;;;5058322;28;20070;-68
2022/09/27 13:00:11;;;;;;;0.20;0.20;;;12.60;99.90;;;;;;5075956;28;20048;-70
2022/09/27 13:03:08;;;;;;;0.20;0.20;;;12.50;99.90;;;;;;5058016;28;20056;-70
2022/09/27 13:05:59;;;;;;;0.30;0.20;;;12.40;99.90;;;;;;5075887;28;20074;-69
2022/09/27 13:08:54;;;;;;;0.20;0.20;;;12.30;99.90;;;;;;5075771;28;20047;-70
2022/09/27 13:11:48;;;;;;;0.30;0.20;;;12.00;99.90;;;;;;5075807;28;20049;-70
2022/09/27 13:14:23;;;;;;;0.82;0.30;;;11.90;99.90;;;;;;5075533;28;20149;-70
2022/09/27 13:16:50;;;;;;;0.22;0.22;;;11.80;99.90;;;;;;5075949;28;20037;-69
2022/09/27 13:19:34;;;;;;;0.30;0.30;;;11.70;99.90;;;;;;5057643;28;20072;-69
2022/09/27 13:22:20;;;;;;;0.20;0.20;;;11.50;99.90;;;;;;5075844;28;20073;-69
2022/09/27 13:24:47;;;;;;;0.20;0.20;;;11.30;99.90;;;;;;5073984;28;20047;-70
2022/09/27 13:27:22;;;;;;;1.02;0.20;;;11.10;99.90;;;;;;5075380;28;20036;-69
2022/09/27 13:29:49;;;;;;;0.63;0.30;;;11.10;99.90;;;;;;5075698;28;20043;-68
2022/09/27 13:32:16;;;;;;;0.45;0.45;;;11.10;99.90;;;;;;5075351;28;20476;-69
2022/09/27 13:34:46;;;;;;;0.20;0.20;;;11.10;99.90;;;;;;5057507;28;20507;-70
2022/09/27 13:37:35;;;;;;;1.30;0.50;;;11.30;99.90;;;;;;5075270;28;20044;-69
2022/09/27 13:40:23;;;;;;;0.20;0.20;;;11.40;99.90;;;;;;5075379;28;20055;-69
2022/09/27 13:43:07;;;;;;;0.30;0.30;;;11.50;99.90;;;;;;5075101;28;20044;-69
2022/09/27 13:45:42;;;;;;;0.20;0.20;;;11.60;99.90;;;;;;5056992;28;20079;-70
2022/09/27 13:48:18;;;;;;;0.25;0.25;;;11.70;99.90;;;;;;5074033;28;20048;-69